Jacqueline Cochran Regional Airport Palm Springs US
ICAO: KTRM
IATA: TRM
Category: Medium
Scheduled Services: No

Elevation: -115 ft
TransAlt. 18000 ft.

Airport Communications:
PALM SPRINGS APP/DEP:135.275
ASOS:118.325
RIVERSIDE RDO:122.3
CTAF/UNICOM:123

KTRM Zoom In..

Runways:

(A) RW 12 length 4995 ft width 100 ft
---- / hdg 122

(B) RW 17 length 8500 ft width 150 ft
---- / hdg 167

(C) RW 30 length 4995 ft width 100 ft
---- / hdg 302

(D) RW 35 length 8500 ft width 150 ft
---- / hdg 347

Location; KTRM
Day. 05 / Time. 17.52 Zulu
* Altimeter: 29.59
* Temperature: 33° c. 91.4°f.
* Wind from: KTR° Speed M kn.
Dewpoint: 13° c.
Visibility: 7 Statute Miles.
Clouds: Clear (automated report).

KTRM 051752Z AUTO 34012KT 7SM CLR 33/13 A2959 RMK AO2 SLP024 T03330128 10333 20256 58002


Wind From KTR°
Speed M kn.

 
 
jpsmedia worldairports.se 2020   terms of use